createdAt,value
2018-03-24T00:02:06.341Z,109.13
2018-03-24T00:04:35.194Z,113.13
2018-03-24T00:07:03.863Z,104.30
2018-03-24T00:09:32.387Z,106.03
2018-03-24T00:12:00.879Z,105.03
2018-03-24T00:14:29.349Z,110.10
2018-03-24T00:16:57.834Z,102.50
2018-03-24T00:19:26.254Z,117.27
2018-03-24T00:21:54.675Z,103.83
2018-03-24T00:24:23.858Z,103.23
2018-03-24T00:26:52.298Z,120.13
2018-03-24T00:29:20.758Z,114.90
2018-03-24T00:31:49.202Z,106.43
2018-03-24T00:34:17.677Z,110.47
2018-03-24T00:36:46.891Z,108.47
2018-03-24T00:39:15.276Z,116.80
2018-03-24T00:41:43.735Z,105.33
2018-03-24T00:44:12.967Z,112.33
2018-03-24T00:46:41.806Z,120.20
2018-03-24T00:49:10.278Z,112.47
2018-03-24T00:51:38.738Z,112.00
2018-03-24T00:54:07.166Z,107.73
2018-03-24T00:56:35.608Z,101.50
2018-03-24T00:59:04.037Z,93.27
2018-03-24T01:01:32.478Z,90.77
2018-03-24T01:04:00.944Z,102.33
2018-03-24T01:06:29.371Z,92.73
2018-03-24T01:08:57.815Z,104.13
2018-03-24T01:11:26.248Z,98.83
2018-03-24T01:13:54.717Z,112.57
2018-03-24T01:16:23.145Z,110.73
2018-03-24T01:18:51.583Z,116.33
2018-03-24T01:21:20.817Z,113.40
2018-03-24T01:23:49.267Z,111.90
2018-03-24T01:26:17.716Z,96.27
2018-03-24T01:28:46.921Z,116.63
2018-03-24T01:31:15.376Z,94.10
2018-03-24T01:33:44.644Z,104.00
2018-03-24T01:36:13.048Z,111.63
2018-03-24T01:38:41.530Z,110.07
2018-03-24T01:41:10.322Z,88.03
2018-03-24T01:43:38.778Z,93.80
2018-03-24T01:46:07.180Z,91.27
2018-03-24T01:48:35.566Z,105.73
2018-03-24T01:51:04.785Z,118.33
2018-03-24T01:53:45.092Z,126.70
2018-03-24T01:56:13.598Z,120.73
2018-03-24T01:58:42.785Z,106.10
2018-03-24T02:01:11.769Z,107.40
2018-03-24T02:03:40.196Z,122.57
2018-03-24T02:06:08.672Z,121.00
2018-03-24T02:08:37.125Z,107.27
2018-03-24T02:11:06.364Z,113.97
2018-03-24T02:13:35.147Z,103.67
2018-03-24T02:16:03.598Z,118.77
2018-03-24T02:18:32.058Z,108.30
2018-03-24T02:23:59.846Z,101.47
2018-03-24T02:26:28.387Z,102.03
2018-03-24T02:28:56.845Z,105.43
2018-03-24T02:31:25.345Z,97.93
2018-03-24T02:33:54.608Z,110.77
2018-03-24T02:36:23.045Z,111.93
2018-03-24T02:38:52.260Z,108.97
2018-03-24T02:41:20.798Z,109.67
2018-03-24T02:43:50.032Z,105.13
2018-03-24T02:46:18.545Z,115.57
2018-03-24T02:48:47.037Z,126.50
2018-03-24T02:51:15.522Z,120.77
2018-03-24T02:53:43.991Z,132.80
2018-03-24T02:58:47.106Z,110.87
2018-03-24T03:01:15.623Z,107.73
2018-03-24T03:03:44.107Z,123.00
2018-03-24T03:06:13.325Z,104.60
2018-03-24T03:08:41.808Z,110.13
2018-03-24T03:11:10.332Z,99.53
2018-03-24T03:13:39.568Z,114.67
2018-03-24T03:16:08.805Z,102.63
2018-03-24T03:18:37.250Z,114.47
2018-03-24T03:21:05.760Z,116.33
2018-03-24T03:23:34.322Z,107.60
2018-03-24T03:26:02.819Z,108.23
2018-03-24T03:28:31.984Z,122.23
2018-03-24T03:33:56.313Z,111.17
2018-03-24T03:36:25.633Z,103.70
2018-03-24T03:38:54.928Z,95.10
2018-03-24T03:41:23.383Z,111.33
2018-03-24T03:43:51.868Z,118.47
2018-03-24T03:46:20.353Z,120.40
2018-03-24T03:48:49.556Z,120.23
2018-03-24T03:51:19.278Z,119.40
2018-03-24T03:53:47.747Z,102.10
2018-03-24T03:56:16.288Z,116.30
2018-03-24T03:58:45.568Z,88.00
2018-03-24T04:01:15.008Z,100.60
2018-03-24T04:03:43.564Z,107.17
2018-03-24T04:06:13.886Z,113.87
2018-03-24T04:08:45.375Z,127.97
2018-03-24T04:11:13.890Z,100.77
2018-03-24T04:13:42.927Z,117.50
2018-03-24T04:16:11.471Z,114.20
2018-03-24T04:18:40.033Z,118.53
2018-03-24T04:21:08.540Z,101.80
2018-03-24T04:23:37.815Z,113.23
2018-03-24T04:26:07.023Z,112.20
2018-03-24T04:28:36.323Z,109.10
2018-03-24T04:31:04.847Z,105.73
2018-03-24T04:33:34.148Z,113.27
2018-03-24T04:36:03.078Z,115.97
2018-03-24T04:38:31.608Z,116.07
2018-03-24T04:41:01.843Z,105.00
2018-03-24T04:43:30.473Z,114.60
2018-03-24T04:45:59.879Z,131.00
2018-03-24T04:48:29.687Z,118.87
2018-03-24T04:50:58.282Z,110.70
2018-03-24T04:53:27.774Z,95.40
2018-03-24T04:55:57.043Z,135.87
2018-03-24T04:58:26.446Z,136.23
2018-03-24T05:00:55.461Z,130.97
2018-03-24T05:03:23.977Z,128.53
2018-03-24T05:05:54.180Z,135.90
2018-03-24T05:08:22.697Z,127.00
2018-03-24T05:10:52.213Z,116.70
2018-03-24T05:13:21.721Z,110.07
2018-03-24T05:15:50.184Z,116.17
2018-03-24T05:18:19.484Z,128.33
2018-03-24T05:20:48.727Z,120.20
2018-03-24T05:23:17.209Z,107.87
2018-03-24T05:25:46.763Z,116.13
2018-03-24T05:28:16.041Z,110.03
2018-03-24T05:30:44.570Z,120.07
2018-03-24T05:33:13.475Z,108.97
2018-03-24T05:35:41.894Z,119.80
2018-03-24T05:38:10.387Z,112.13
2018-03-24T05:40:39.731Z,128.67
2018-03-24T05:43:08.258Z,115.13
2018-03-24T05:45:38.074Z,124.17
2018-03-24T05:48:07.280Z,119.63
2018-03-24T05:50:37.660Z,104.53
2018-03-24T05:53:06.946Z,120.30
2018-03-24T05:55:35.490Z,112.20
2018-03-24T05:58:04.007Z,129.17
2018-03-24T06:00:33.282Z,115.27
2018-03-24T06:03:01.851Z,116.00
2018-03-24T06:05:31.799Z,100.43
2018-03-24T06:08:00.941Z,115.00
2018-03-24T06:10:30.247Z,99.70
2018-03-24T06:13:00.614Z,118.93
2018-03-24T06:15:29.904Z,118.93
2018-03-24T06:17:58.410Z,112.93
2018-03-24T06:20:27.849Z,125.20
2018-03-24T06:22:56.325Z,98.87
2018-03-24T06:25:25.527Z,137.57
2018-03-24T06:27:55.154Z,121.30
2018-03-24T06:30:38.544Z,106.33
2018-03-24T06:33:07.847Z,100.00
2018-03-24T06:35:37.637Z,102.77
2018-03-24T06:38:07.615Z,96.33
2018-03-24T06:40:36.790Z,87.87
2018-03-24T06:43:05.378Z,89.67
2018-03-24T06:45:34.426Z,98.30
2018-03-24T06:48:05.572Z,93.83
2018-03-24T06:50:34.154Z,93.20
2018-03-24T06:53:03.834Z,84.53
2018-03-24T06:55:33.448Z,97.13
2018-03-24T07:01:15.569Z,91.63
2018-03-24T07:03:50.361Z,95.13
2018-03-24T07:06:20.241Z,84.80
2018-03-24T07:08:49.489Z,80.50
2018-03-24T07:11:19.714Z,85.57
2018-03-24T07:13:51.140Z,81.77
2018-03-24T07:16:19.538Z,87.40
2018-03-24T07:18:48.672Z,78.23
2018-03-24T07:21:18.122Z,79.57
2018-03-24T07:23:46.732Z,77.33
2018-03-24T07:26:15.340Z,81.03
2018-03-24T07:28:44.627Z,78.07
2018-03-24T07:31:13.210Z,77.03
2018-03-24T07:33:42.617Z,83.50
2018-03-24T07:36:11.616Z,69.63
2018-03-24T07:38:40.864Z,73.93
2018-03-24T07:41:10.394Z,78.97
2018-03-24T07:43:40.794Z,75.37
2018-03-24T07:46:13.415Z,71.43
2018-03-24T07:48:41.850Z,68.43
2018-03-24T07:51:10.242Z,75.80
2018-03-24T07:53:39.431Z,69.97
2018-03-24T07:56:08.572Z,73.10
2018-03-24T07:58:36.975Z,68.53
2018-03-24T08:01:05.414Z,71.63
2018-03-24T08:03:33.839Z,68.17
2018-03-24T08:06:02.634Z,60.30
2018-03-24T08:08:31.044Z,61.93
2018-03-24T08:11:01.020Z,66.17
2018-03-24T08:13:29.556Z,66.97
2018-03-24T08:15:58.332Z,67.33
2018-03-24T08:18:26.715Z,69.73
2018-03-24T08:20:55.108Z,67.90
2018-03-24T08:23:23.676Z,66.73
2018-03-24T08:25:53.262Z,69.90
2018-03-24T08:28:24.839Z,69.13
2018-03-24T08:30:53.283Z,68.37
2018-03-24T08:33:22.118Z,65.43
2018-03-24T08:35:51.802Z,67.83
2018-03-24T08:38:20.276Z,64.30
2018-03-24T08:40:49.481Z,69.47
2018-03-24T08:43:17.873Z,71.77
2018-03-24T08:45:46.288Z,65.00
2018-03-24T08:48:14.653Z,71.07
2018-03-24T08:50:43.046Z,62.93
2018-03-24T08:53:11.513Z,63.47
2018-03-24T08:55:40.319Z,66.53
2018-03-24T08:58:08.718Z,68.10
2018-03-24T09:00:37.929Z,61.00
2018-03-24T09:03:06.587Z,59.97
2018-03-24T09:05:36.659Z,62.23
2018-03-24T09:08:06.236Z,66.73
2018-03-24T09:10:34.626Z,58.57
2018-03-24T09:13:03.043Z,70.63
2018-03-24T09:15:31.531Z,62.00
2018-03-24T09:18:00.350Z,62.57
2018-03-24T09:20:29.517Z,64.57
2018-03-24T09:22:57.934Z,57.90
2018-03-24T09:25:27.311Z,63.83
2018-03-24T09:27:55.696Z,61.97
2018-03-24T09:30:24.922Z,62.03
2018-03-24T09:32:53.348Z,64.13
2018-03-24T09:35:21.831Z,60.00
2018-03-24T09:37:50.240Z,68.80
2018-03-24T09:40:18.753Z,61.93
2018-03-24T09:42:47.156Z,64.00
2018-03-24T09:45:15.595Z,60.03
2018-03-24T09:47:44.115Z,63.77
2018-03-24T09:50:12.581Z,57.60
2018-03-24T09:52:41.080Z,59.40
2018-03-24T09:55:09.457Z,64.00
2018-03-24T09:57:37.900Z,59.63
2018-03-24T10:00:06.361Z,58.40
2018-03-24T10:02:34.752Z,55.90
2018-03-24T10:05:03.337Z,60.10
2018-03-24T10:07:31.762Z,57.63
2018-03-24T10:10:00.251Z,56.97
2018-03-24T10:12:28.736Z,59.33
2018-03-24T10:14:57.173Z,58.37
2018-03-24T10:17:25.581Z,57.73
2018-03-24T10:19:54.022Z,62.97
2018-03-24T10:47:02.723Z,50.03
2018-03-24T10:49:31.171Z,55.03
2018-03-24T10:51:59.822Z,57.90
2018-03-24T10:54:29.014Z,54.80
2018-03-24T10:56:57.400Z,55.37
2018-03-24T10:59:26.552Z,57.47
2018-03-24T11:01:55.030Z,57.43
2018-03-24T11:04:23.440Z,56.70
2018-03-24T11:06:51.870Z,54.87
2018-03-24T11:09:20.292Z,53.43
2018-03-24T11:11:48.730Z,54.10
2018-03-24T11:14:17.107Z,56.03
2018-03-24T11:16:45.515Z,55.57
2018-03-24T11:19:13.900Z,47.17
2018-03-24T11:21:42.306Z,47.47
2018-03-24T11:24:11.506Z,45.67
2018-03-24T11:26:40.632Z,40.70
2018-03-24T11:29:09.147Z,43.50
2018-03-24T11:31:37.507Z,36.27
2018-03-24T11:34:05.953Z,42.23
2018-03-24T11:36:34.380Z,34.90
2018-03-24T11:39:02.812Z,30.47
2018-03-24T11:41:31.259Z,25.63
2018-03-24T11:44:00.457Z,23.40
2018-03-24T11:46:29.612Z,21.70
2018-03-24T11:48:58.006Z,20.40
2018-03-24T11:51:26.409Z,19.83
2018-03-24T11:53:54.785Z,11.97
2018-03-24T11:56:23.207Z,14.03
2018-03-24T11:58:51.612Z,14.27
2018-03-24T12:01:20.000Z,13.77
2018-03-24T12:03:48.386Z,17.97
2018-03-24T12:06:16.773Z,18.40
2018-03-24T12:08:46.217Z,17.33
2018-03-24T12:11:20.500Z,17.93
2018-03-24T12:13:50.898Z,19.27
2018-03-24T12:16:22.082Z,20.80
2018-03-24T12:18:52.776Z,21.97
2018-03-24T12:21:21.624Z,21.97
2018-03-24T12:23:49.994Z,22.20
2018-03-24T12:26:18.471Z,23.20
2018-03-24T12:28:47.909Z,24.50
2018-03-24T12:31:16.391Z,24.87
2018-03-24T12:33:44.755Z,25.20
2018-03-24T12:36:13.116Z,22.47
2018-03-24T12:38:45.638Z,23.10
2018-03-24T12:41:14.947Z,23.50
2018-03-24T12:43:44.863Z,22.00
2018-03-24T12:46:15.184Z,24.57
2018-03-24T12:48:43.636Z,22.87
2018-03-24T12:51:12.063Z,23.13
2018-03-24T12:53:41.238Z,27.07
2018-03-24T12:56:09.598Z,22.83
2018-03-24T12:58:38.039Z,23.07
2018-03-24T13:01:06.456Z,21.83
2018-03-24T13:03:34.852Z,25.80
2018-03-24T13:06:03.246Z,23.30
2018-03-24T13:08:32.401Z,23.27
2018-03-24T13:11:00.832Z,21.40
2018-03-24T13:13:29.242Z,21.77
2018-03-24T13:15:57.662Z,24.13
2018-03-24T13:18:26.071Z,22.93
2018-03-24T13:20:54.454Z,22.27
2018-03-24T13:23:22.828Z,22.13
2018-03-24T13:25:51.217Z,20.70
2018-03-24T13:28:20.639Z,22.07
2018-03-24T13:30:49.094Z,28.93
2018-03-24T13:33:17.479Z,25.43
2018-03-24T13:35:45.859Z,26.20
2018-03-24T13:38:14.230Z,22.63
2018-03-24T13:40:42.658Z,25.10
2018-03-24T13:43:11.086Z,24.53
2018-03-24T13:45:39.442Z,27.23
2018-03-24T13:48:08.586Z,24.20
2018-03-24T13:50:37.023Z,23.83
2018-03-24T13:53:05.400Z,23.57
2018-03-24T13:55:33.776Z,22.97
2018-03-24T13:58:02.132Z,23.67
2018-03-24T14:00:30.594Z,22.33
2018-03-24T14:02:58.983Z,22.10
2018-03-24T14:05:27.398Z,23.70
2018-03-24T14:07:55.827Z,22.57
2018-03-24T14:10:24.245Z,22.23
2018-03-24T14:12:52.986Z,21.67
2018-03-24T14:15:21.380Z,24.20
2018-03-24T14:17:49.782Z,24.20
2018-03-24T14:20:19.354Z,22.33
2018-03-24T14:22:47.771Z,22.20
2018-03-24T14:25:16.181Z,23.33
2018-03-24T14:27:44.660Z,22.47
2018-03-24T14:30:13.036Z,22.67
2018-03-24T14:32:42.167Z,22.10
2018-03-24T14:35:10.616Z,20.20
2018-03-24T14:37:39.051Z,17.63
2018-03-24T14:40:07.457Z,18.47
2018-03-24T14:42:36.625Z,19.83
2018-03-24T14:45:05.797Z,17.53
2018-03-24T14:47:34.226Z,19.20
2018-03-24T14:50:02.611Z,19.57
2018-03-24T14:52:30.968Z,18.30
2018-03-24T14:54:59.399Z,17.53
2018-03-24T14:57:27.800Z,18.47
2018-03-24T14:59:56.205Z,17.13
2018-03-24T15:02:24.559Z,18.80
2018-03-24T15:04:52.947Z,19.00
2018-03-24T15:07:22.088Z,19.90
2018-03-24T15:09:50.480Z,15.97
2018-03-24T15:12:18.933Z,18.23
2018-03-24T15:14:47.332Z,21.10
2018-03-24T15:17:15.746Z,19.87
2018-03-24T15:19:44.910Z,19.43
2018-03-24T15:22:13.272Z,17.40
2018-03-24T15:24:41.731Z,19.77
2018-03-24T15:27:10.106Z,21.53
2018-03-24T15:29:50.304Z,17.93
2018-03-24T15:32:30.428Z,20.43
2018-03-24T15:35:10.707Z,18.70
2018-03-24T15:37:39.140Z,20.10
2018-03-24T15:40:07.584Z,20.67
2018-03-24T15:42:35.992Z,17.07
2018-03-24T15:45:05.230Z,20.93
2018-03-24T15:47:33.614Z,19.00
2018-03-24T15:50:02.056Z,18.63
2018-03-24T15:52:30.517Z,17.20
2018-03-24T15:54:59.693Z,18.20
2018-03-24T15:57:28.099Z,22.10
2018-03-24T15:59:57.241Z,17.40
2018-03-24T16:02:25.645Z,22.07
2018-03-24T16:04:54.072Z,24.23
2018-03-24T16:07:22.895Z,18.37
2018-03-24T16:09:51.345Z,21.03
2018-03-24T16:12:19.732Z,20.77
2018-03-24T16:14:48.177Z,19.50
2018-03-24T16:17:16.560Z,18.03
2018-03-24T16:19:45.034Z,18.90
2018-03-24T16:22:14.185Z,20.17
2018-03-24T16:24:42.638Z,22.57
2018-03-24T16:27:11.046Z,22.03
2018-03-24T16:29:39.407Z,18.90
2018-03-24T16:32:07.834Z,21.73
2018-03-24T16:34:36.246Z,25.00
2018-03-24T16:37:05.001Z,20.57
2018-03-24T16:39:34.124Z,22.30
2018-03-24T16:42:02.539Z,23.00
2018-03-24T16:44:30.957Z,23.57
2018-03-24T16:47:00.135Z,23.63
2018-03-24T16:49:28.506Z,22.00
2018-03-24T16:51:56.891Z,22.57
2018-03-24T16:54:25.314Z,21.47
2018-03-24T16:56:53.816Z,24.63
2018-03-24T16:59:22.192Z,26.23
2018-03-24T17:01:50.606Z,24.57
2018-03-24T17:04:19.077Z,25.00
2018-03-24T17:06:47.909Z,24.50
2018-03-24T17:09:16.322Z,25.83
2018-03-24T17:11:44.760Z,21.40
2018-03-24T17:14:13.154Z,26.43
2018-03-24T17:16:41.532Z,24.37
2018-03-24T17:19:09.947Z,23.37
2018-03-24T17:21:38.381Z,22.00
2018-03-24T17:24:06.744Z,23.20
2018-03-24T17:26:35.911Z,21.97
2018-03-24T17:29:04.322Z,21.17
2018-03-24T17:31:32.699Z,21.50
2018-03-24T17:34:01.919Z,22.37
2018-03-24T17:36:30.360Z,23.23
2018-03-24T17:38:59.475Z,24.67
2018-03-24T17:41:27.838Z,24.80
2018-03-24T17:43:57.033Z,26.63
2018-03-24T17:46:26.204Z,22.97
2018-03-24T17:48:54.626Z,22.40
2018-03-24T17:51:23.048Z,25.40
2018-03-24T17:53:53.491Z,26.80
2018-03-24T17:59:29.516Z,23.13
2018-03-24T18:02:01.098Z,24.73
2018-03-24T18:04:29.555Z,24.47
2018-03-24T18:06:58.022Z,25.27
2018-03-24T18:09:26.415Z,23.73
2018-03-24T18:11:55.146Z,24.63
2018-03-24T18:14:23.613Z,24.50
2018-03-24T18:16:52.129Z,26.63
2018-03-24T18:19:21.355Z,26.53
2018-03-24T18:21:49.764Z,28.17
2018-03-24T18:24:18.200Z,25.93
2018-03-24T18:26:46.646Z,26.10
2018-03-24T18:29:15.115Z,24.27
2018-03-24T18:31:43.552Z,28.93
2018-03-24T18:34:12.018Z,27.93
2018-03-24T18:36:40.424Z,26.23
2018-03-24T18:39:08.823Z,25.73
2018-03-24T18:41:37.252Z,30.37
2018-03-24T18:44:05.684Z,28.10
2018-03-24T18:46:34.221Z,29.47
2018-03-24T18:49:20.683Z,26.87
2018-03-24T18:51:49.276Z,28.27
2018-03-24T18:54:18.491Z,26.33
2018-03-24T18:56:47.339Z,26.97
2018-03-24T18:59:15.747Z,26.13
2018-03-24T19:01:44.966Z,30.00
2018-03-24T19:04:13.327Z,23.50
2018-03-24T19:06:42.564Z,29.83
2018-03-24T19:09:11.413Z,28.13
2018-03-24T19:11:39.838Z,25.53
2018-03-24T19:14:08.242Z,27.70
2018-03-24T19:16:36.709Z,29.10
2018-03-24T19:19:05.161Z,28.67
2018-03-24T19:21:35.611Z,29.23
2018-03-24T19:24:04.227Z,28.73
2018-03-24T19:26:33.458Z,25.27
2018-03-24T19:29:01.910Z,32.30
2018-03-24T19:31:30.794Z,26.47
2018-03-24T19:33:59.276Z,26.63
2018-03-24T19:36:28.471Z,30.63
2018-03-24T19:38:57.746Z,26.43
2018-03-24T19:41:26.260Z,28.77
2018-03-24T19:43:55.451Z,26.43
2018-03-24T19:46:24.987Z,25.57
2018-03-24T19:48:53.342Z,27.43
2018-03-24T19:51:27.360Z,28.33
2018-03-24T19:53:55.750Z,26.87
2018-03-24T19:56:24.113Z,28.57
2018-03-24T19:58:52.570Z,30.03
2018-03-24T20:01:21.760Z,34.67
2018-03-24T20:03:50.264Z,27.97
2018-03-24T20:06:18.675Z,30.77
2018-03-24T20:08:47.103Z,26.53
2018-03-24T20:11:15.572Z,30.10
2018-03-24T20:13:43.985Z,30.53
2018-03-24T20:16:13.131Z,30.40
2018-03-24T20:18:42.334Z,31.10
2018-03-24T20:21:10.802Z,33.63
2018-03-24T20:23:39.204Z,32.37
2018-03-24T20:26:07.677Z,33.50
2018-03-24T20:28:36.032Z,32.00
2018-03-24T20:31:04.458Z,30.30
2018-03-24T20:33:33.629Z,32.27
2018-03-24T20:36:02.070Z,33.00
2018-03-24T20:38:30.755Z,34.40
2018-03-24T20:40:59.143Z,35.20
2018-03-24T20:43:28.059Z,35.70
2018-03-24T20:45:56.479Z,35.53
2018-03-24T20:48:24.894Z,35.27
2018-03-24T20:50:53.329Z,34.40
2018-03-24T20:53:21.822Z,33.87
2018-03-24T20:55:50.268Z,36.87
2018-03-24T20:58:19.411Z,35.13
2018-03-24T21:00:47.843Z,35.83
2018-03-24T21:03:16.221Z,36.17
2018-03-24T21:05:45.403Z,39.77
2018-03-24T21:08:13.860Z,39.53
2018-03-24T21:10:42.255Z,34.30
2018-03-24T21:13:10.634Z,40.43
2018-03-24T21:15:39.077Z,39.70
2018-03-24T21:18:07.646Z,38.03
2018-03-24T21:20:36.054Z,40.33
2018-03-24T21:23:04.466Z,43.13
2018-03-24T21:25:32.885Z,40.30
2018-03-24T21:28:01.460Z,44.57
2018-03-24T21:30:29.873Z,43.47
2018-03-24T21:32:58.327Z,38.67
2018-03-24T21:35:26.765Z,41.10
2018-03-24T21:37:55.960Z,38.67
2018-03-24T21:40:24.400Z,44.67
2018-03-24T21:42:52.835Z,42.17
2018-03-24T21:45:22.011Z,42.00
2018-03-24T21:47:50.371Z,42.57
2018-03-24T21:50:18.832Z,42.53
2018-03-24T21:52:47.211Z,40.87
2018-03-24T21:55:15.660Z,45.23
2018-03-24T21:57:44.132Z,37.20
2018-03-24T22:00:13.316Z,43.60
2018-03-24T22:02:42.481Z,47.77
2018-03-24T22:05:10.879Z,43.57
2018-03-24T22:07:39.283Z,50.97
2018-03-24T22:10:07.673Z,47.63
2018-03-24T22:12:36.088Z,45.93
2018-03-24T22:15:04.555Z,43.67
2018-03-24T22:17:32.974Z,49.57
2018-03-24T22:20:01.359Z,45.73
2018-03-24T22:22:30.519Z,49.93
2018-03-24T22:24:59.345Z,47.57
2018-03-24T22:27:28.586Z,47.67
2018-03-24T22:29:57.016Z,45.47
2018-03-24T22:32:26.188Z,52.07
2018-03-24T22:34:54.585Z,53.83
2018-03-24T22:37:22.992Z,47.27
2018-03-24T22:39:51.366Z,49.90
2018-03-24T22:42:19.764Z,48.60
2018-03-24T22:44:48.214Z,47.00
2018-03-24T22:47:17.373Z,44.83
2018-03-24T22:49:45.774Z,48.93
2018-03-24T22:52:14.449Z,49.40
2018-03-24T22:54:42.802Z,49.97
2018-03-24T22:57:11.188Z,49.80
2018-03-24T22:59:39.822Z,49.23
2018-03-24T23:02:08.317Z,46.07
2018-03-24T23:04:36.757Z,48.77
2018-03-24T23:07:05.124Z,50.40
2018-03-24T23:09:33.476Z,50.40
2018-03-24T23:12:01.953Z,49.33
2018-03-24T23:14:30.350Z,44.63
2018-03-24T23:16:58.729Z,51.60
2018-03-24T23:19:27.150Z,50.27
2018-03-24T23:21:56.313Z,54.87
2018-03-24T23:24:24.688Z,51.50
2018-03-24T23:26:53.156Z,49.17
2018-03-24T23:29:21.564Z,52.97
2018-03-24T23:31:50.753Z,45.17
2018-03-24T23:34:19.166Z,49.10
2018-03-24T23:36:47.552Z,45.97
2018-03-24T23:39:15.949Z,50.80
2018-03-24T23:41:44.298Z,54.07
2018-03-24T23:44:12.664Z,51.00
2018-03-24T23:46:41.380Z,49.40
2018-03-24T23:49:09.791Z,48.73
2018-03-24T23:51:38.162Z,51.23
2018-03-24T23:54:07.022Z,47.00
2018-03-24T23:56:35.397Z,49.13
2018-03-24T23:59:03.767Z,44.40
